Time;durP1;ratioP1;P1;durP2;ratioP2;P2;SDS_P1;SDS_P2;PMS_P1;PMS_P2;Temp;Humidity;BMP_temperature;BMP_pressure;BME280_temperature;BME280_humidity;BME280_pressure;Samples;Min_cycle;Max_cycle;Signal;HPM_P1;HPM_P2
2022/08/21 00:00:52;;;;;;;16.55;11.02;;;16.10;99.90;;;;;;4999004;28;20234;-64
2022/08/21 00:03:18;;;;;;;16.33;11.50;;;16.10;99.90;;;;;;4998995;28;20235;-64
2022/08/21 00:05:49;;;;;;;18.50;11.50;;;16.00;99.90;;;;;;5016621;28;20576;-64
2022/08/21 00:08:15;;;;;;;20.60;11.68;;;16.10;99.90;;;;;;4998871;28;20188;-64
2022/08/21 00:10:42;;;;;;;14.90;11.40;;;16.10;99.90;;;;;;5016678;28;20683;-64
2022/08/21 00:13:09;;;;;;;15.43;11.02;;;16.00;99.90;;;;;;5016507;28;20187;-64
2022/08/21 00:15:37;;;;;;;18.02;11.93;;;16.10;99.90;;;;;;5016598;28;20179;-64
2022/08/21 00:18:04;;;;;;;17.58;11.52;;;16.20;99.90;;;;;;5016338;28;20715;-64
2022/08/21 00:20:31;;;;;;;15.35;10.77;;;16.20;99.90;;;;;;5016196;28;20242;-64
2022/08/21 00:22:57;;;;;;;16.65;11.23;;;16.20;99.90;;;;;;5016139;28;20188;-64
2022/08/21 00:25:23;;;;;;;17.80;11.82;;;16.20;99.90;;;;;;4998740;28;20180;-64
2022/08/21 00:27:49;;;;;;;17.13;10.95;;;16.20;99.90;;;;;;4998295;28;20176;-65
2022/08/21 00:30:17;;;;;;;14.70;9.90;;;16.10;99.90;;;;;;5016399;28;20578;-64
2022/08/21 00:32:44;;;;;;;18.30;11.18;;;16.20;99.90;;;;;;5015953;28;20204;-64
2022/08/21 00:35:13;;;;;;;16.65;11.20;;;16.20;99.90;;;;;;5016265;28;20259;-64
2022/08/21 00:37:39;;;;;;;15.35;10.82;;;16.10;99.90;;;;;;4998299;28;20183;-64
2022/08/21 00:40:08;;;;;;;17.50;11.23;;;16.00;99.90;;;;;;5015827;28;20199;-64
2022/08/21 00:42:34;;;;;;;14.57;10.73;;;16.00;99.90;;;;;;4998113;28;20207;-64
2022/08/21 00:45:02;;;;;;;16.33;10.82;;;15.90;99.90;;;;;;5015430;28;20168;-64
2022/08/21 00:47:27;;;;;;;15.98;11.13;;;15.90;99.90;;;;;;4997589;28;20188;-64
2022/08/21 00:49:53;;;;;;;14.77;10.35;;;15.90;99.90;;;;;;4998152;28;20276;-64
2022/08/21 00:52:24;;;;;;;17.38;10.63;;;15.80;99.90;;;;;;5015710;28;20234;-64
2022/08/21 00:54:51;;;;;;;17.40;10.88;;;15.90;99.90;;;;;;5016070;28;20156;-64
2022/08/21 00:57:23;;;;;;;14.18;10.70;;;15.80;99.90;;;;;;4998005;28;20282;-64
2022/08/21 00:59:53;;;;;;;12.68;10.18;;;15.80;99.90;;;;;;5015465;28;20239;-64
2022/08/21 01:02:20;;;;;;;15.18;9.85;;;15.70;99.90;;;;;;4997942;28;20665;-64
2022/08/21 01:04:46;;;;;;;13.30;9.63;;;15.80;99.90;;;;;;5030823;28;20180;-64
2022/08/21 01:07:12;;;;;;;17.75;9.70;;;15.70;99.90;;;;;;5030814;28;20184;-64
2022/08/21 01:09:42;;;;;;;17.33;9.68;;;15.70;99.90;;;;;;5015707;28;20168;-64
2022/08/21 01:12:08;;;;;;;15.98;9.60;;;15.70;99.90;;;;;;4997828;28;20239;-64
2022/08/21 01:14:35;;;;;;;12.30;9.65;;;15.70;99.90;;;;;;5030336;28;20246;-64
2022/08/21 01:17:03;;;;;;;15.18;9.70;;;15.70;99.90;;;;;;5015416;28;20187;-64
2022/08/21 01:19:29;;;;;;;14.55;9.40;;;15.70;99.90;;;;;;5015152;28;20196;-64
2022/08/21 01:21:56;;;;;;;15.18;9.77;;;15.70;99.90;;;;;;5015166;28;20661;-64
2022/08/21 01:24:22;;;;;;;12.00;9.55;;;15.60;99.90;;;;;;5030306;28;20179;-64
2022/08/21 01:26:48;;;;;;;16.60;9.80;;;15.60;99.90;;;;;;5015093;28;20195;-64
2022/08/21 01:29:20;;;;;;;14.55;9.95;;;15.60;99.90;;;;;;5014839;28;20246;-64
2022/08/21 01:31:46;;;;;;;13.88;9.55;;;15.60;99.90;;;;;;4997720;28;20619;-66
2022/08/21 01:34:12;;;;;;;12.52;9.10;;;15.60;99.90;;;;;;5015679;28;20172;-67
2022/08/21 01:36:38;;;;;;;12.38;8.98;;;15.60;99.90;;;;;;5015134;28;20264;-66
2022/08/21 01:39:04;;;;;;;16.35;10.00;;;15.70;99.90;;;;;;5014830;28;20270;-66
2022/08/21 01:41:30;;;;;;;17.38;10.10;;;15.70;99.90;;;;;;5015121;28;20218;-66
2022/08/21 01:43:56;;;;;;;14.25;9.93;;;15.70;99.90;;;;;;5014795;28;20625;-66
2022/08/21 01:46:22;;;;;;;14.23;9.80;;;15.70;99.90;;;;;;4997073;28;20641;-67
2022/08/21 01:48:48;;;;;;;15.95;9.15;;;15.70;99.90;;;;;;5014715;28;20176;-66
2022/08/21 01:51:13;;;;;;;12.50;10.10;;;15.60;99.90;;;;;;5014646;28;20200;-67
2022/08/21 01:53:40;;;;;;;15.10;10.30;;;15.60;99.90;;;;;;5014557;28;20183;-67
2022/08/21 01:56:09;;;;;;;15.45;10.98;;;15.60;99.90;;;;;;5014681;28;20199;-66
2022/08/21 01:58:35;;;;;;;18.20;11.07;;;15.50;99.90;;;;;;5014208;28;20164;-66
2022/08/21 02:01:02;;;;;;;15.93;10.98;;;15.50;99.90;;;;;;5014612;28;20238;-66
2022/08/21 02:03:29;;;;;;;14.43;10.68;;;15.50;99.90;;;;;;5014404;28;20663;-67
2022/08/21 02:05:55;;;;;;;12.60;9.77;;;15.60;99.90;;;;;;5014437;28;20168;-66
2022/08/21 02:08:24;;;;;;;17.08;10.27;;;15.60;99.90;;;;;;5014726;28;20645;-67
2022/08/21 02:10:51;;;;;;;15.05;9.18;;;15.70;99.90;;;;;;4996690;28;20270;-67
2022/08/21 02:13:18;;;;;;;13.68;10.00;;;15.70;99.90;;;;;;5014111;28;20172;-67
2022/08/21 02:15:44;;;;;;;12.95;9.90;;;15.70;99.90;;;;;;5014939;28;20202;-67
2022/08/21 02:18:10;;;;;;;12.57;9.77;;;15.70;99.90;;;;;;5014886;28;20222;-67
2022/08/21 02:20:42;;;;;;;13.90;9.35;;;15.70;99.90;;;;;;5014201;28;20207;-67
2022/08/21 02:23:10;;;;;;;15.00;9.80;;;15.70;99.90;;;;;;4996665;28;20171;-67
2022/08/21 02:25:36;;;;;;;13.77;10.13;;;15.70;99.90;;;;;;5014127;28;20306;-67
2022/08/21 02:28:05;;;;;;;14.70;9.95;;;15.60;99.90;;;;;;4996486;28;20176;-66
2022/08/21 02:30:34;;;;;;;14.45;10.40;;;15.60;99.90;;;;;;5014250;28;20254;-67
2022/08/21 02:33:00;;;;;;;11.75;9.20;;;15.60;99.90;;;;;;4996264;28;20262;-66
2022/08/21 02:35:26;;;;;;;13.38;9.43;;;15.60;99.90;;;;;;5014119;28;20258;-67
2022/08/21 02:37:55;;;;;;;12.73;8.90;;;15.70;99.90;;;;;;5029126;28;20282;-67
2022/08/21 02:40:26;;;;;;;12.93;9.02;;;15.60;99.90;;;;;;4996211;28;20684;-66
2022/08/21 02:42:53;;;;;;;15.05;9.15;;;15.70;99.90;;;;;;5014210;28;20191;-66
2022/08/21 02:45:19;;;;;;;11.57;8.65;;;15.70;99.90;;;;;;5013670;28;20536;-66
2022/08/21 02:47:51;;;;;;;13.65;8.57;;;15.70;99.90;;;;;;5014287;28;20172;-66
2022/08/21 02:50:26;;;;;;;14.00;9.15;;;15.70;99.90;;;;;;5014030;28;20210;-67
2022/08/21 02:52:53;;;;;;;13.27;8.95;;;15.60;99.90;;;;;;5014201;28;20195;-67
2022/08/21 02:55:20;;;;;;;12.57;9.88;;;15.60;99.90;;;;;;5013859;28;20178;-66
2022/08/21 02:57:46;;;;;;;13.95;9.32;;;15.60;99.90;;;;;;5013885;28;20234;-67
2022/08/21 03:00:13;;;;;;;12.55;9.52;;;15.50;99.90;;;;;;5013806;28;20195;-66
2022/08/21 03:02:39;;;;;;;14.40;9.50;;;15.50;99.90;;;;;;5014433;28;20267;-67
2022/08/21 03:05:07;;;;;;;16.85;9.45;;;15.50;99.90;;;;;;5014368;28;20577;-66
2022/08/21 03:07:34;;;;;;;12.82;9.55;;;15.40;99.90;;;;;;5014489;28;20314;-66
2022/08/21 03:10:00;;;;;;;11.93;9.35;;;15.30;99.90;;;;;;4999045;28;20183;-66
2022/08/21 03:12:26;;;;;;;15.02;9.63;;;15.30;99.90;;;;;;5017894;28;20195;-66
2022/08/21 03:14:52;;;;;;;18.50;9.68;;;15.20;99.90;;;;;;5017389;28;20254;-66
2022/08/21 03:17:17;;;;;;;12.23;9.50;;;15.10;99.90;;;;;;5018172;28;20230;-66
2022/08/21 03:19:43;;;;;;;12.90;9.90;;;15.10;99.90;;;;;;5017737;28;20688;-66
2022/08/21 03:22:09;;;;;;;14.52;9.90;;;15.10;99.90;;;;;;5017505;28;20653;-66
2022/08/21 03:24:35;;;;;;;16.67;9.93;;;15.00;99.90;;;;;;5017430;28;20168;-66
2022/08/21 03:27:01;;;;;;;13.65;9.57;;;14.90;99.90;;;;;;4999778;28;20199;-66
2022/08/21 03:29:26;;;;;;;13.25;9.93;;;14.80;99.90;;;;;;5017123;28;20190;-66
2022/08/21 03:31:53;;;;;;;14.95;10.25;;;14.80;99.90;;;;;;5017152;28;20192;-67
2022/08/21 03:34:20;;;;;;;13.38;10.35;;;14.70;99.90;;;;;;4999647;28;20268;-66
2022/08/21 03:36:48;;;;;;;13.15;9.63;;;14.80;99.90;;;;;;5017262;28;20191;-67
2022/08/21 03:39:15;;;;;;;13.68;9.77;;;14.80;99.90;;;;;;5017140;28;20641;-66
2022/08/21 03:41:41;;;;;;;14.02;10.15;;;14.80;99.90;;;;;;5017397;28;20192;-67
2022/08/21 03:44:07;;;;;;;13.98;9.75;;;14.80;99.90;;;;;;5017035;28;20183;-66
2022/08/21 03:46:33;;;;;;;12.05;9.88;;;14.80;99.90;;;;;;5017144;28;20172;-66
2022/08/21 03:48:58;;;;;;;15.93;10.32;;;14.80;99.90;;;;;;5017656;28;20213;-66
2022/08/21 03:51:24;;;;;;;13.75;10.05;;;14.70;99.90;;;;;;4999205;28;20211;-66
2022/08/21 03:53:50;;;;;;;17.13;11.07;;;14.60;99.90;;;;;;5017106;28;20215;-66
2022/08/21 03:56:16;;;;;;;14.05;9.82;;;14.60;99.90;;;;;;4999286;28;20195;-66
2022/08/21 03:58:42;;;;;;;12.20;9.27;;;14.60;99.90;;;;;;5016774;28;20255;-67
2022/08/21 04:01:08;;;;;;;14.77;9.82;;;14.60;99.90;;;;;;5016744;28;20208;-66
2022/08/21 04:03:36;;;;;;;14.35;9.55;;;14.60;99.90;;;;;;5016799;28;20234;-66
2022/08/21 04:06:02;;;;;;;14.18;9.75;;;14.60;99.90;;;;;;5016629;28;20182;-66
2022/08/21 04:08:28;;;;;;;12.50;9.55;;;14.60;99.90;;;;;;5016640;28;20195;-66
2022/08/21 04:10:56;;;;;;;13.40;9.35;;;14.60;99.90;;;;;;4999002;28;20192;-64
2022/08/21 04:13:22;;;;;;;16.95;9.85;;;14.60;99.90;;;;;;5016652;28;20196;-64
2022/08/21 04:15:49;;;;;;;13.70;9.43;;;14.50;99.90;;;;;;5016669;28;20182;-64
2022/08/21 04:18:14;;;;;;;14.85;9.38;;;14.50;99.90;;;;;;4999474;28;20210;-64
2022/08/21 04:20:42;;;;;;;15.40;8.98;;;14.50;99.90;;;;;;5016248;28;20672;-65
2022/08/21 04:23:08;;;;;;;17.50;8.90;;;14.50;99.90;;;;;;5017280;28;20250;-64
2022/08/21 04:25:35;;;;;;;15.00;9.25;;;14.50;99.90;;;;;;5017117;28;20265;-64
2022/08/21 04:28:01;;;;;;;14.90;9.65;;;14.50;99.90;;;;;;5016733;28;20251;-64
2022/08/21 04:30:27;;;;;;;11.85;9.27;;;14.50;99.90;;;;;;5016211;28;20179;-64
2022/08/21 04:32:53;;;;;;;13.75;8.85;;;14.50;99.90;;;;;;5016213;28;20204;-64
2022/08/21 04:35:21;;;;;;;12.18;8.85;;;14.50;99.90;;;;;;4998732;28;20191;-64
2022/08/21 04:37:47;;;;;;;12.10;8.88;;;14.50;99.90;;;;;;5016106;28;20269;-64
2022/08/21 04:40:15;;;;;;;14.95;9.25;;;14.50;99.90;;;;;;5016179;28;20253;-64
2022/08/21 04:42:45;;;;;;;15.00;9.70;;;14.40;99.90;;;;;;5016336;28;20195;-64
2022/08/21 04:45:42;;;;;;;11.35;8.73;;;14.50;99.90;;;;;;5031167;28;20739;-64
2022/08/21 04:48:10;;;;;;;12.43;9.20;;;14.50;99.90;;;;;;5015386;28;20234;-64
2022/08/21 04:50:44;;;;;;;14.48;10.23;;;14.40;99.90;;;;;;5016030;28;20231;-64
2022/08/21 04:53:22;;;;;;;12.45;9.23;;;14.40;99.90;;;;;;4998765;28;20580;-64
2022/08/21 04:55:48;;;;;;;14.80;9.82;;;14.40;99.90;;;;;;5016398;28;20599;-64
2022/08/21 04:58:17;;;;;;;14.77;10.18;;;14.40;99.90;;;;;;5016220;28;20504;-64
2022/08/21 05:00:44;;;;;;;12.55;10.20;;;14.30;99.90;;;;;;5015372;28;20595;-64
2022/08/21 05:03:12;;;;;;;13.50;9.85;;;14.30;99.90;;;;;;5016433;28;20673;-64
2022/08/21 05:05:39;;;;;;;21.92;11.10;;;14.30;99.90;;;;;;5016526;28;20172;-64
2022/08/21 05:08:07;;;;;;;15.63;10.68;;;14.30;99.90;;;;;;5016580;28;20180;-64
2022/08/21 05:10:33;;;;;;;13.00;10.05;;;14.30;99.90;;;;;;5016041;28;20207;-64
2022/08/21 05:13:00;;;;;;;13.95;10.95;;;14.30;99.90;;;;;;5015330;28;20239;-64
2022/08/21 05:15:27;;;;;;;15.73;10.75;;;14.30;99.90;;;;;;5015317;28;20171;-64
2022/08/21 05:17:52;;;;;;;14.57;10.10;;;14.30;99.90;;;;;;5016038;28;20564;-64
2022/08/21 05:20:19;;;;;;;13.25;9.73;;;14.40;99.90;;;;;;5015635;28;20206;-64
2022/08/21 05:22:45;;;;;;;14.38;11.35;;;14.40;99.90;;;;;;5015012;28;20282;-64
2022/08/21 05:25:11;;;;;;;15.55;10.35;;;14.40;99.90;;;;;;5015123;28;20174;-64
2022/08/21 05:27:38;;;;;;;12.73;9.43;;;14.40;99.90;;;;;;5015758;28;20168;-64
2022/08/21 05:30:08;;;;;;;14.75;9.93;;;14.40;99.90;;;;;;5014727;28;20605;-63
2022/08/21 05:32:35;;;;;;;13.00;8.98;;;14.50;99.90;;;;;;5014704;28;20191;-64
2022/08/21 05:35:01;;;;;;;14.07;10.45;;;14.50;99.90;;;;;;5014924;28;20176;-64
2022/08/21 05:37:27;;;;;;;12.90;10.02;;;14.60;99.90;;;;;;5014916;28;20188;-64
2022/08/21 05:39:52;;;;;;;12.43;9.65;;;14.60;99.90;;;;;;5014769;28;20539;-64
2022/08/21 05:42:18;;;;;;;12.90;9.68;;;14.70;99.90;;;;;;4997438;28;20673;-64
2022/08/21 05:44:44;;;;;;;14.48;9.32;;;14.70;99.90;;;;;;5014849;28;20164;-64
2022/08/21 05:47:11;;;;;;;11.52;9.10;;;14.80;99.90;;;;;;4997116;28;20180;-64
2022/08/21 05:49:37;;;;;;;10.35;8.98;;;14.90;99.90;;;;;;4997075;28;20183;-65
2022/08/21 05:52:04;;;;;;;15.82;10.13;;;14.90;99.90;;;;;;5015239;28;20253;-65
2022/08/21 05:54:30;;;;;;;12.05;8.82;;;15.00;99.90;;;;;;5015089;28;20176;-68
2022/08/21 05:56:56;;;;;;;17.83;9.52;;;15.00;99.90;;;;;;5014577;28;20203;-67
2022/08/21 05:59:22;;;;;;;15.55;10.75;;;15.10;99.90;;;;;;5014466;28;20175;-68
2022/08/21 06:01:48;;;;;;;15.30;9.82;;;15.10;99.90;;;;;;5029452;28;20196;-67
2022/08/21 06:04:14;;;;;;;14.70;11.05;;;15.20;99.90;;;;;;4996851;28;20592;-68
2022/08/21 06:06:40;;;;;;;15.05;11.07;;;15.30;99.90;;;;;;5014550;28;20179;-68
2022/08/21 06:09:06;;;;;;;15.30;11.43;;;15.30;99.90;;;;;;5014366;28;20168;-68
2022/08/21 06:11:33;;;;;;;16.67;11.32;;;15.30;99.90;;;;;;5014348;28;20253;-68
2022/08/21 06:13:59;;;;;;;16.02;11.18;;;15.40;99.90;;;;;;4996468;28;20201;-68
2022/08/21 06:16:26;;;;;;;18.15;12.35;;;15.50;99.90;;;;;;4996883;28;20246;-68
2022/08/21 06:18:52;;;;;;;17.60;11.27;;;15.50;99.90;;;;;;4996544;28;20633;-68
2022/08/21 06:21:18;;;;;;;15.38;10.52;;;15.60;99.90;;;;;;5014204;28;20711;-68
2022/08/21 06:23:44;;;;;;;13.48;9.88;;;15.70;99.90;;;;;;5014059;28;20551;-68
2022/08/21 06:26:12;;;;;;;15.77;10.43;;;15.70;99.90;;;;;;5014055;28;20167;-68
2022/08/21 06:28:39;;;;;;;15.38;10.55;;;15.80;99.90;;;;;;5014194;28;20180;-68
2022/08/21 06:31:17;;;;;;;17.20;11.80;;;15.80;99.90;;;;;;4995861;28;20213;-68
2022/08/21 06:33:43;;;;;;;15.43;10.15;;;15.90;99.90;;;;;;4996369;28;20191;-67
2022/08/21 06:36:09;;;;;;;16.95;10.25;;;16.00;99.90;;;;;;5014168;28;20504;-67
2022/08/21 06:38:35;;;;;;;16.17;10.95;;;16.10;99.90;;;;;;5013834;28;20637;-68
2022/08/21 06:41:01;;;;;;;14.70;9.30;;;16.10;99.90;;;;;;5013874;28;20599;-67
2022/08/21 06:43:28;;;;;;;16.13;10.50;;;16.20;99.90;;;;;;4995438;28;20187;-68
2022/08/21 06:45:54;;;;;;;17.35;9.73;;;16.30;99.90;;;;;;4995950;28;20176;-68
2022/08/21 06:48:20;;;;;;;15.77;10.23;;;16.40;99.90;;;;;;4996036;28;20543;-68
2022/08/21 06:50:47;;;;;;;18.27;9.75;;;16.50;99.90;;;;;;5013751;28;20651;-67
2022/08/21 06:53:16;;;;;;;17.50;11.07;;;16.70;99.90;;;;;;5013728;28;20179;-67
2022/08/21 06:55:42;;;;;;;11.82;9.27;;;16.80;99.90;;;;;;5013717;28;20574;-69
2022/08/21 06:58:09;;;;;;;14.00;9.43;;;16.90;99.90;;;;;;4996059;28;20637;-69
2022/08/21 07:00:38;;;;;;;12.00;8.55;;;16.90;99.90;;;;;;5013445;28;20211;-69
2022/08/21 07:03:04;;;;;;;14.63;9.02;;;17.00;99.90;;;;;;5013808;28;20196;-69
2022/08/21 07:05:30;;;;;;;13.85;8.95;;;17.10;99.90;;;;;;4996443;28;20289;-67
2022/08/21 07:07:57;;;;;;;12.95;8.82;;;17.20;99.90;;;;;;5013632;28;20183;-67
2022/08/21 07:10:24;;;;;;;15.75;9.82;;;17.40;99.90;;;;;;5013467;28;20187;-67
2022/08/21 07:12:52;;;;;;;12.77;9.32;;;17.50;99.90;;;;;;4995736;28;20203;-67
2022/08/21 07:15:18;;;;;;;13.27;9.15;;;17.70;99.90;;;;;;5013627;28;20182;-67
2022/08/21 07:17:43;;;;;;;14.57;10.00;;;17.90;99.90;;;;;;5013359;28;20179;-67
2022/08/21 07:20:09;;;;;;;13.65;9.50;;;18.00;99.90;;;;;;4996283;28;20229;-67
2022/08/21 07:22:37;;;;;;;13.90;8.73;;;18.10;99.90;;;;;;5013329;28;20192;-67
2022/08/21 07:25:04;;;;;;;12.35;8.13;;;18.10;99.90;;;;;;5028481;28;20180;-67
2022/08/21 07:27:30;;;;;;;11.05;8.48;;;18.10;99.90;;;;;;4996089;28;20172;-67
2022/08/21 07:29:56;;;;;;;12.05;7.72;;;18.20;99.90;;;;;;5013185;28;20186;-66
2022/08/21 07:32:22;;;;;;;15.30;8.45;;;18.30;99.90;;;;;;5013218;28;20195;-67
2022/08/21 07:34:47;;;;;;;11.57;7.60;;;18.40;99.90;;;;;;5013403;28;20629;-65
2022/08/21 07:37:13;;;;;;;13.30;8.40;;;18.50;99.90;;;;;;4995663;28;20221;-65
2022/08/21 07:39:39;;;;;;;16.10;9.18;;;18.60;99.90;;;;;;5013023;28;20214;-65
2022/08/21 07:42:05;;;;;;;11.43;7.95;;;18.70;99.90;;;;;;4995410;28;20286;-65
2022/08/21 07:44:31;;;;;;;12.70;7.82;;;18.70;99.90;;;;;;5013153;28;20291;-65
2022/08/21 07:46:57;;;;;;;13.68;7.78;;;18.80;99.90;;;;;;5013103;28;20176;-65
2022/08/21 07:49:22;;;;;;;12.80;7.40;;;18.90;99.90;;;;;;4995517;28;20160;-65
2022/08/21 07:51:49;;;;;;;13.60;7.88;;;19.00;99.90;;;;;;5013164;28;20188;-65
2022/08/21 07:54:14;;;;;;;13.23;7.53;;;19.10;99.90;;;;;;4995705;28;20195;-66
2022/08/21 07:56:40;;;;;;;14.80;7.38;;;19.30;99.90;;;;;;4998783;28;20195;-65
2022/08/21 07:59:06;;;;;;;10.50;7.32;;;19.30;99.90;;;;;;5016933;28;20535;-65
2022/08/21 08:01:31;;;;;;;12.82;7.78;;;19.40;99.90;;;;;;5016468;28;20211;-66
2022/08/21 08:03:57;;;;;;;15.55;7.20;;;19.40;99.90;;;;;;5016621;28;20163;-67
2022/08/21 08:06:23;;;;;;;10.60;7.70;;;19.50;99.90;;;;;;5016533;28;20167;-64
2022/08/21 08:08:49;;;;;;;13.18;7.45;;;19.50;99.90;;;;;;5016615;28;20606;-64
2022/08/21 08:11:16;;;;;;;12.38;7.05;;;19.60;99.90;;;;;;5017408;28;20200;-64
2022/08/21 08:13:47;;;;;;;13.40;7.88;;;19.60;99.90;;;;;;5016259;28;20287;-64
2022/08/21 08:16:14;;;;;;;14.10;7.35;;;19.60;99.90;;;;;;5016070;28;20239;-64
2022/08/21 08:18:41;;;;;;;10.93;6.05;;;19.70;99.90;;;;;;5016102;28;20187;-64
2022/08/21 08:21:08;;;;;;;11.40;6.35;;;19.80;99.90;;;;;;5016537;28;20227;-64
2022/08/21 08:23:34;;;;;;;13.15;7.32;;;19.90;99.90;;;;;;5016141;28;20204;-64
2022/08/21 08:26:00;;;;;;;12.07;6.80;;;20.00;99.90;;;;;;5016225;28;20591;-64
2022/08/21 08:28:26;;;;;;;11.13;6.65;;;20.00;99.90;;;;;;5031259;28;20259;-64
2022/08/21 08:30:52;;;;;;;9.70;6.70;;;20.10;99.90;;;;;;5015702;28;20661;-64
2022/08/21 08:33:19;;;;;;;12.45;6.78;;;20.20;99.90;;;;;;5015983;28;20190;-64
2022/08/21 08:35:48;;;;;;;11.20;6.10;;;20.30;99.90;;;;;;5015846;28;20622;-64
2022/08/21 08:38:18;;;;;;;11.60;6.97;;;20.40;99.90;;;;;;5015815;28;20194;-64
2022/08/21 08:40:59;;;;;;;9.20;6.10;;;20.60;99.90;;;;;;5015679;28;20196;-64
2022/08/21 08:43:27;;;;;;;12.50;7.35;;;20.70;99.90;;;;;;5016110;28;20152;-64
2022/08/21 08:45:55;;;;;;;11.52;6.60;;;20.90;99.90;;;;;;5018117;28;20172;-65
2022/08/21 08:48:40;;;;;;;13.43;6.10;;;21.10;99.90;;;;;;5006118;28;20187;-66
2022/08/21 08:51:16;;;;;;;14.48;5.97;;;21.30;99.90;;;;;;5001292;28;20199;-65
2022/08/21 08:53:58;;;;;;;8.30;4.68;;;21.40;99.90;;;;;;5033468;28;20645;-67
2022/08/21 08:56:34;;;;;;;11.95;5.32;;;21.40;99.90;;;;;;5021280;28;20203;-67
2022/08/21 08:59:16;;;;;;;9.85;5.20;;;21.50;99.90;;;;;;5004497;28;20648;-69
2022/08/21 09:01:42;;;;;;;10.25;4.82;;;21.40;99.90;;;;;;5017436;28;20754;-69
2022/08/21 09:04:12;;;;;;;13.27;5.40;;;21.40;99.90;;;;;;5033313;28;20210;-69
2022/08/21 09:06:54;;;;;;;11.18;4.22;;;21.50;99.90;;;;;;5015453;28;20218;-69
2022/08/21 09:09:50;;;;;;;11.63;4.60;;;21.70;99.90;;;;;;5015674;28;20234;-69
2022/08/21 09:12:28;;;;;;;9.52;4.20;;;21.60;99.90;;;;;;5016112;28;20266;-69
2022/08/21 09:15:51;;;;;;;6.70;3.67;;;21.70;99.90;;;;;;5015637;28;20167;-67
2022/08/21 09:18:47;;;;;;;11.15;4.32;;;21.60;99.90;;;;;;4956505;29;20198;-69
2022/08/21 09:21:25;;;;;;;8.45;4.43;;;21.80;99.90;;;;;;4956111;28;20695;-69
2022/08/21 09:24:10;;;;;;;11.77;5.05;;;22.00;99.90;;;;;;5008658;28;20196;-69
2022/08/21 09:27:02;;;;;;;8.40;4.72;;;22.20;99.90;;;;;;5015573;28;20186;-69
2022/08/21 09:29:32;;;;;;;11.32;4.43;;;22.10;99.90;;;;;;5015323;28;20155;-69
2022/08/21 09:31:58;;;;;;;8.52;4.25;;;22.30;99.90;;;;;;5015275;28;20290;-69
2022/08/21 09:34:30;;;;;;;9.15;4.50;;;22.60;99.90;;;;;;5015168;28;20212;-67
2022/08/21 09:36:56;;;;;;;10.57;4.07;;;22.70;99.90;;;;;;5015053;28;20184;-67
2022/08/21 09:39:37;;;;;;;10.35;4.78;;;22.90;99.90;;;;;;5015311;28;20172;-67
2022/08/21 09:42:06;;;;;;;9.70;4.28;;;23.00;99.90;;;;;;5015203;28;20289;-67
2022/08/21 09:44:41;;;;;;;7.47;3.72;;;23.10;99.90;;;;;;5014884;28;20263;-67
2022/08/21 09:47:08;;;;;;;6.72;3.92;;;23.00;99.90;;;;;;5015576;28;20639;-67
2022/08/21 09:49:37;;;;;;;9.35;3.10;;;22.80;99.90;;;;;;5000023;28;20227;-67
2022/08/21 09:52:11;;;;;;;6.90;2.92;;;22.80;99.90;;;;;;5000581;28;20279;-67
2022/08/21 09:54:39;;;;;;;8.93;3.13;;;22.80;99.90;;;;;;5017282;28;20712;-67
2022/08/21 10:00:18;;;;;;;7.20;2.50;;;23.10;99.90;;;;;;5014769;28;20194;-67
2022/08/21 10:02:44;;;;;;;8.13;3.15;;;23.30;99.90;;;;;;5014754;28;20196;-67
2022/08/21 10:05:24;;;;;;;11.02;3.45;;;23.40;99.90;;;;;;5014683;28;20251;-67
2022/08/21 10:07:50;;;;;;;7.93;3.50;;;23.30;99.90;;;;;;5014477;28;20267;-67
2022/08/21 10:10:37;;;;;;;5.80;2.88;;;23.40;99.90;;;;;;5014529;28;20183;-67
2022/08/21 10:13:13;;;;;;;4.97;2.70;;;23.40;99.90;;;;;;5014531;28;20245;-67
2022/08/21 10:16:18;;;;;;;8.25;3.33;;;23.40;99.90;;;;;;5029344;28;20233;-65
2022/08/21 10:18:52;;;;;;;9.75;3.30;;;23.40;99.90;;;;;;5014044;28;20167;-65
2022/08/21 10:21:39;;;;;;;7.60;2.90;;;23.30;99.90;;;;;;5014375;28;20234;-65
2022/08/21 10:24:10;;;;;;;7.55;2.95;;;23.30;99.90;;;;;;5014502;28;20166;-65
2022/08/21 10:26:50;;;;;;;8.48;3.28;;;23.30;99.90;;;;;;5029527;28;20164;-65
2022/08/21 10:29:35;;;;;;;8.55;3.22;;;23.30;99.90;;;;;;5014368;28;20282;-65
2022/08/21 10:32:20;;;;;;;10.55;2.78;;;23.20;99.90;;;;;;5014056;28;20210;-65
2022/08/21 10:35:12;;;;;;;9.40;2.88;;;23.20;99.90;;;;;;5014328;28;20242;-65
2022/08/21 10:38:00;;;;;;;8.88;3.13;;;23.30;99.90;;;;;;4996464;28;20187;-65
2022/08/21 10:40:35;;;;;;;8.05;3.13;;;23.40;99.90;;;;;;5014233;28;20187;-65
2022/08/21 10:43:10;;;;;;;9.43;2.97;;;23.40;99.90;;;;;;4996312;28;20746;-65
2022/08/21 10:45:57;;;;;;;9.18;2.65;;;23.40;99.90;;;;;;5014044;28;20530;-65
2022/08/21 10:48:47;;;;;;;9.77;2.83;;;23.50;99.90;;;;;;5014116;28;20173;-65
2022/08/21 10:51:22;;;;;;;6.25;2.58;;;23.60;99.90;;;;;;5029110;28;20285;-65
2022/08/21 10:53:56;;;;;;;8.20;3.00;;;23.80;99.90;;;;;;5014075;28;20225;-65
2022/08/21 10:56:26;;;;;;;9.07;2.72;;;23.70;99.90;;;;;;4997521;28;20195;-71
2022/08/21 10:59:25;;;;;;;9.90;3.10;;;23.70;99.90;;;;;;5018087;28;20171;-69
2022/08/21 11:02:09;;;;;;;8.55;2.60;;;23.80;99.90;;;;;;5015984;28;20203;-65
2022/08/21 11:05:02;;;;;;;7.00;2.83;;;23.90;99.90;;;;;;5015725;28;20168;-66
2022/08/21 11:07:45;;;;;;;8.75;3.20;;;24.00;99.90;;;;;;4996738;28;20187;-69
2022/08/21 11:10:49;;;;;;;6.88;3.05;;;24.00;99.90;;;;;;5014737;28;20166;-64
2022/08/21 11:13:40;;;;;;;9.57;2.63;;;24.20;99.90;;;;;;5014417;28;20226;-65
2022/08/21 11:16:23;;;;;;;7.90;2.88;;;24.40;99.90;;;;;;5013839;28;20163;-68
2022/08/21 11:19:10;;;;;;;8.75;2.97;;;24.50;99.90;;;;;;5013814;28;20640;-65
2022/08/21 11:22:05;;;;;;;7.22;2.40;;;24.60;99.90;;;;;;5013771;28;20218;-64
2022/08/21 11:24:52;;;;;;;6.63;2.95;;;24.50;99.90;;;;;;5014919;28;20165;-65
2022/08/21 11:27:32;;;;;;;9.02;2.70;;;24.60;99.90;;;;;;5013668;28;20164;-71
2022/08/21 11:30:00;;;;;;;5.55;2.30;;;24.70;99.90;;;;;;4997575;28;20180;-72
2022/08/21 11:32:38;;;;;;;5.88;2.45;;;24.70;99.90;;;;;;5018069;28;20195;-71
2022/08/21 11:35:22;;;;;;;9.77;2.63;;;24.80;99.90;;;;;;5017870;28;20175;-68
2022/08/21 11:37:54;;;;;;;8.55;2.50;;;24.90;99.90;;;;;;5017559;28;20245;-67
2022/08/21 11:40:38;;;;;;;5.50;2.80;;;24.90;99.90;;;;;;4999598;28;20754;-64
2022/08/21 11:43:25;;;;;;;4.95;2.10;;;25.10;99.90;;;;;;4999482;28;20677;-64
2022/08/21 11:45:55;;;;;;;5.28;2.45;;;25.20;99.90;;;;;;4999169;28;20253;-64
2022/08/21 11:48:43;;;;;;;4.72;2.38;;;25.30;99.90;;;;;;5016914;28;20160;-64
2022/08/21 11:51:27;;;;;;;4.03;2.03;;;25.40;99.90;;;;;;5032061;28;20203;-66
2022/08/21 11:54:29;;;;;;;5.88;2.45;;;25.30;99.90;;;;;;5017455;28;20266;-66
2022/08/21 11:57:13;;;;;;;5.22;2.33;;;25.20;99.90;;;;;;5017010;28;20202;-66
2022/08/21 11:59:45;;;;;;;6.07;2.25;;;25.50;99.90;;;;;;4999582;28;20648;-67
2022/08/21 12:02:15;;;;;;;7.82;2.40;;;25.50;99.90;;;;;;5016377;28;20257;-64
2022/08/21 12:04:53;;;;;;;12.25;2.70;;;25.40;99.90;;;;;;5016907;28;20175;-64
2022/08/21 12:07:36;;;;;;;6.88;2.10;;;25.40;99.90;;;;;;5016918;28;20211;-64
2022/08/21 12:10:07;;;;;;;7.40;2.60;;;25.40;99.90;;;;;;4998862;28;20172;-63
2022/08/21 12:12:36;;;;;;;7.95;2.53;;;25.30;99.90;;;;;;5016799;28;20207;-64
2022/08/21 12:15:20;;;;;;;4.53;1.83;;;25.30;99.90;;;;;;5031547;28;20341;-65
2022/08/21 12:18:19;;;;;;;8.50;2.25;;;25.40;99.90;;;;;;4998620;28;20175;-63
2022/08/21 12:21:02;;;;;;;5.65;2.10;;;25.40;99.90;;;;;;5005621;28;20223;-64
2022/08/21 12:23:45;;;;;;;8.20;2.50;;;25.30;99.90;;;;;;5017197;28;20211;-67
2022/08/21 12:26:35;;;;;;;4.78;2.03;;;25.50;99.90;;;;;;5017065;28;20160;-67
2022/08/21 12:29:14;;;;;;;4.32;1.92;;;25.70;99.90;;;;;;5031359;28;20230;-64
2022/08/21 12:31:52;;;;;;;6.10;2.00;;;25.70;99.90;;;;;;5016244;28;20196;-64
2022/08/21 12:34:20;;;;;;;6.50;1.77;;;25.40;99.90;;;;;;5016091;28;20179;-65
2022/08/21 12:36:53;;;;;;;4.65;1.88;;;25.20;99.90;;;;;;5016481;28;20608;-64
2022/08/21 12:39:24;;;;;;;5.50;1.80;;;24.90;99.90;;;;;;5016896;28;20188;-68
2022/08/21 12:41:59;;;;;;;7.13;2.00;;;24.80;99.90;;;;;;5030696;28;20281;-68
2022/08/21 12:44:34;;;;;;;5.60;1.90;;;24.90;99.90;;;;;;5015847;28;20167;-68
2022/08/21 12:47:05;;;;;;;6.35;1.80;;;25.10;99.90;;;;;;4998143;28;20229;-68
2022/08/21 12:49:50;;;;;;;3.22;1.80;;;25.50;99.90;;;;;;5033000;28;20571;-68
2022/08/21 12:52:33;;;;;;;4.70;2.00;;;25.90;99.90;;;;;;5030942;28;20688;-68
2022/08/21 12:54:59;;;;;;;5.43;1.75;;;26.00;99.90;;;;;;5016269;28;20571;-68
2022/08/21 12:57:28;;;;;;;3.33;1.55;;;26.20;99.90;;;;;;5015789;28;20656;-68
2022/08/21 12:59:57;;;;;;;2.72;1.60;;;26.30;99.90;;;;;;4998309;28;20614;-70